createdAt,value
2022-10-04T00:01:50.995Z,1.40
2022-10-04T00:05:41.770Z,1.10
2022-10-04T00:09:47.931Z,1.10
2022-10-04T00:13:38.618Z,2.50
2022-10-04T00:17:30.784Z,3.00
2022-10-04T00:21:30.698Z,2.30
2022-10-04T00:25:24.295Z,1.60
2022-10-04T00:29:23.681Z,1.90
2022-10-04T00:33:20.663Z,1.40
2022-10-04T00:37:17.625Z,1.50
2022-10-04T00:41:12.111Z,1.10
2022-10-04T00:45:02.353Z,1.90
2022-10-04T00:49:24.687Z,2.60
2022-10-04T00:53:13.652Z,2.90
2022-10-04T01:22:23.600Z,2.00
2022-10-04T01:26:22.569Z,1.30
2022-10-04T01:30:13.597Z,1.80
2022-10-04T01:34:05.913Z,1.90
2022-10-04T01:37:55.265Z,2.40
2022-10-04T01:41:45.129Z,3.40
2022-10-04T01:45:53.809Z,3.00
2022-10-04T02:09:17.493Z,2.40
2022-10-04T04:00:39.981Z,9.10
2022-10-04T04:04:35.434Z,9.60
2022-10-04T04:08:21.916Z,8.80
2022-10-04T04:22:55.352Z,4.40
2022-10-04T04:26:43.473Z,7.30
2022-10-04T04:30:46.532Z,5.50
2022-10-04T04:34:38.480Z,6.80
2022-10-04T04:38:42.928Z,7.90
2022-10-04T04:50:20.270Z,7.20
2022-10-04T04:54:20.059Z,7.30
2022-10-04T04:58:12.881Z,5.70
2022-10-04T05:19:52.600Z,8.20
2022-10-04T05:23:49.025Z,8.20
2022-10-04T05:54:51.643Z,11.50
2022-10-04T05:58:45.386Z,14.70
2022-10-04T06:02:39.311Z,12.60
2022-10-04T06:06:42.516Z,9.20
2022-10-04T06:10:39.104Z,11.90
2022-10-04T06:14:35.230Z,8.20
2022-10-04T06:18:31.590Z,9.70
2022-10-04T06:22:31.798Z,5.30
2022-10-04T06:26:27.607Z,9.70
2022-10-04T06:30:24.055Z,8.20
2022-10-04T06:34:31.584Z,4.00
2022-10-04T06:38:53.138Z,6.80
2022-10-04T06:42:55.692Z,5.90
2022-10-04T07:01:34.165Z,3.20
2022-10-04T07:09:06.122Z,3.40
2022-10-04T07:32:30.883Z,3.20
2022-10-04T07:36:31.642Z,1.80
2022-10-04T07:40:47.392Z,8.70
2022-10-04T07:44:57.374Z,2.60
2022-10-04T07:48:56.479Z,2.20
2022-10-04T07:53:20.526Z,11.00
2022-10-04T07:57:23.254Z,3.30
2022-10-04T08:01:19.999Z,2.40
2022-10-04T08:05:29.837Z,2.60
2022-10-04T08:09:28.309Z,3.20
2022-10-04T08:13:25.459Z,2.10
2022-10-04T08:17:26.880Z,2.50
2022-10-04T08:29:50.443Z,2.40
2022-10-04T10:28:16.032Z,3.60
2022-10-04T12:02:08.569Z,1.90
2022-10-04T12:40:33.755Z,4.90
2022-10-04T13:10:55.114Z,4.10
2022-10-04T13:15:17.007Z,2.50
2022-10-04T13:19:31.337Z,3.80
2022-10-04T13:23:23.815Z,3.90
2022-10-04T13:27:24.208Z,3.70
2022-10-04T13:31:24.491Z,4.80
2022-10-04T13:35:34.407Z,3.40
2022-10-04T13:51:20.126Z,1.80
2022-10-04T13:55:14.303Z,3.30
2022-10-04T14:03:18.659Z,2.60
2022-10-04T14:07:23.709Z,2.50
2022-10-04T14:11:28.272Z,5.90
2022-10-04T14:15:24.304Z,2.70
2022-10-04T14:50:32.381Z,6.20
2022-10-04T14:54:48.513Z,3.80
2022-10-04T14:58:41.650Z,4.40
2022-10-04T15:03:05.551Z,8.60
2022-10-04T15:07:13.413Z,6.80
2022-10-04T15:11:08.260Z,7.00
2022-10-04T15:15:08.110Z,6.60
2022-10-04T15:18:56.697Z,6.80
2022-10-04T15:22:49.900Z,4.90
2022-10-04T15:27:00.330Z,4.60
2022-10-04T15:42:17.957Z,6.60
2022-10-04T15:46:21.928Z,9.90
2022-10-04T15:50:10.686Z,22.80
2022-10-04T16:22:43.343Z,13.70
2022-10-04T16:26:41.499Z,7.60
2022-10-04T16:30:35.862Z,6.90
2022-10-04T16:46:05.937Z,10.60
2022-10-04T16:50:06.426Z,9.40
2022-10-04T16:53:58.666Z,12.00
2022-10-04T17:04:49.729Z,11.50
2022-10-04T17:08:53.004Z,10.50
2022-10-04T17:12:59.461Z,11.40
2022-10-04T17:16:52.887Z,10.60
2022-10-04T17:38:49.869Z,8.80
2022-10-04T17:42:56.652Z,9.20
2022-10-04T17:50:27.433Z,9.60
2022-10-04T17:57:59.488Z,6.70
2022-10-04T18:02:13.311Z,7.50
2022-10-04T18:06:09.738Z,8.70
2022-10-04T18:10:17.587Z,6.20
2022-10-04T18:14:42.009Z,6.80
2022-10-04T18:18:35.718Z,6.20
2022-10-04T18:22:29.910Z,7.00
2022-10-04T18:26:18.419Z,8.80
2022-10-04T18:30:20.763Z,10.10
2022-10-04T18:34:12.397Z,9.50
2022-10-04T18:38:19.516Z,12.00
2022-10-04T18:42:24.870Z,8.70
2022-10-04T18:46:30.786Z,8.70
2022-10-04T18:50:25.144Z,9.30
2022-10-04T18:54:23.868Z,9.90
2022-10-04T18:58:09.421Z,9.50
2022-10-04T19:01:55.540Z,10.40
2022-10-04T19:06:08.085Z,9.90
2022-10-04T19:10:09.405Z,9.20
2022-10-04T19:14:14.612Z,8.80
2022-10-04T19:18:26.183Z,12.40
2022-10-04T19:22:41.968Z,10.10
2022-10-04T19:26:32.467Z,8.50
2022-10-04T19:30:39.118Z,10.20
2022-10-04T19:34:55.957Z,12.40
2022-10-04T19:38:53.227Z,12.70
2022-10-04T19:42:52.939Z,11.10
2022-10-04T19:46:41.355Z,10.00
2022-10-04T19:50:33.690Z,10.30
2022-10-04T19:54:24.997Z,11.00
2022-10-04T19:58:18.568Z,10.40
2022-10-04T20:05:16.696Z,8.80
2022-10-04T20:13:22.005Z,7.80
2022-10-04T20:18:23.591Z,10.30
2022-10-04T20:21:54.496Z,7.70
2022-10-04T20:25:45.057Z,8.00
2022-10-04T20:29:33.175Z,7.50
2022-10-04T20:33:34.688Z,8.70
2022-10-04T20:37:34.477Z,7.80
2022-10-04T20:41:22.550Z,6.70
2022-10-04T20:45:20.196Z,5.50
2022-10-04T20:49:02.823Z,6.70
2022-10-04T20:52:55.344Z,9.30
2022-10-04T20:57:02.571Z,6.10
2022-10-04T21:01:03.002Z,6.00
2022-10-04T21:05:07.364Z,4.90
2022-10-04T21:09:13.467Z,3.90
2022-10-04T21:13:09.743Z,4.10
2022-10-04T21:17:17.251Z,4.50
2022-10-04T21:21:24.045Z,4.10
2022-10-04T21:25:20.612Z,5.90
2022-10-04T21:29:15.305Z,4.20
2022-10-04T21:33:03.364Z,4.20
2022-10-04T21:36:55.370Z,5.50
2022-10-04T21:40:51.399Z,5.40
2022-10-04T21:44:40.029Z,4.50
2022-10-04T21:48:30.969Z,4.20
2022-10-04T21:52:23.944Z,4.50
2022-10-04T21:56:14.625Z,5.80
2022-10-04T22:00:02.651Z,5.80
2022-10-04T22:03:57.544Z,4.70
2022-10-04T22:07:45.519Z,5.70
2022-10-04T22:11:35.589Z,4.60
2022-10-04T22:15:26.525Z,6.00
2022-10-04T22:19:17.177Z,3.90
2022-10-04T22:23:10.926Z,3.50
2022-10-04T22:27:13.919Z,4.10
2022-10-04T22:31:08.031Z,2.50
2022-10-04T22:35:00.307Z,4.60
2022-10-04T22:38:54.821Z,3.10
2022-10-04T22:42:50.113Z,2.90
2022-10-04T22:46:38.439Z,3.70
2022-10-04T22:50:32.526Z,3.10
2022-10-04T22:54:26.024Z,2.30
2022-10-04T22:58:16.686Z,3.30
2022-10-04T23:02:14.190Z,2.50
2022-10-04T23:06:06.745Z,3.10
2022-10-04T23:09:58.243Z,2.50
2022-10-04T23:13:46.246Z,3.80
2022-10-04T23:17:36.466Z,3.40
2022-10-04T23:21:24.451Z,3.70
2022-10-04T23:25:19.937Z,3.60
2022-10-04T23:29:22.368Z,5.70
2022-10-04T23:33:15.616Z,4.30
2022-10-04T23:37:04.375Z,4.50
2022-10-04T23:40:52.500Z,4.90
2022-10-04T23:44:49.154Z,5.10
2022-10-04T23:48:40.400Z,5.00
2022-10-04T23:52:29.613Z,4.70
2022-10-04T23:56:22.401Z,4.90
